Time;durP1;ratioP1;P1;durP2;ratioP2;P2;SDS_P1;SDS_P2;PMS_P1;PMS_P2;Temp;Humidity;BMP_temperature;BMP_pressure;BME280_temperature;BME280_humidity;BME280_pressure;Samples;Min_cycle;Max_cycle;Signal;HPM_P1;HPM_P2
2021/11/17 02:26:53;;;;;;;8.45;5.18;;;3.20;99.30;;;;;;2081651;28;20600;-64
2021/11/17 02:28:24;;;;;;;8.65;5.13;;;3.20;99.50;;;;;;2080613;28;20685;-64
2021/11/17 02:29:44;;;;;;;8.77;5.43;;;3.20;99.50;;;;;;2083529;28;20240;-64
2021/11/17 02:31:10;;;;;;;10.48;5.97;;;3.10;99.50;;;;;;2081106;28;20601;-64
2021/11/17 02:32:15;;;;;;;8.65;5.15;;;3.20;99.70;;;;;;2081372;28;20242;-64
2021/11/17 02:33:34;;;;;;;7.15;4.93;;;3.10;99.80;;;;;;2081258;28;20185;-64
2021/11/17 02:34:57;;;;;;;8.68;5.50;;;3.00;99.80;;;;;;2081592;28;20186;-64
2021/11/17 02:36:29;;;;;;;9.95;5.18;;;3.00;99.90;;;;;;2081456;28;20540;-64
2021/11/17 02:37:36;;;;;;;10.15;5.47;;;3.10;99.90;;;;;;2081485;28;20191;-64
2021/11/17 02:39:02;;;;;;;7.25;4.95;;;3.10;99.80;;;;;;2081469;28;20233;-64
2021/11/17 02:40:53;;;;;;;8.32;5.25;;;3.10;99.90;;;;;;2081354;28;20643;-64
2021/11/17 02:42:28;;;;;;;7.82;4.53;;;3.10;99.90;;;;;;2063928;28;20214;-64
2021/11/17 02:43:55;;;;;;;9.48;4.95;;;3.10;99.90;;;;;;2071600;28;20616;-63
2021/11/17 02:45:21;;;;;;;7.47;4.30;;;3.20;99.90;;;;;;2063896;28;20211;-64
2021/11/17 02:47:22;;;;;;;9.15;5.03;;;3.20;99.90;;;;;;2081447;28;20725;-64
2021/11/17 02:49:04;;;;;;;7.82;5.22;;;3.30;99.90;;;;;;2076762;28;20182;-63
2021/11/17 02:50:53;;;;;;;9.15;5.05;;;3.30;99.90;;;;;;2081403;28;20260;-64
2021/11/17 02:52:42;;;;;;;10.82;5.70;;;3.30;99.70;;;;;;2081176;28;20217;-63
2021/11/17 02:54:24;;;;;;;7.82;4.80;;;3.40;99.50;;;;;;2073983;28;20203;-64
2021/11/17 02:56:11;;;;;;;7.60;4.43;;;3.40;99.30;;;;;;2081100;28;20262;-63
2021/11/17 02:57:49;;;;;;;6.82;3.75;;;3.30;99.10;;;;;;2081461;28;20202;-63
2021/11/17 02:58:57;;;;;;;6.50;4.45;;;3.20;99.50;;;;;;2081399;28;20258;-63
2021/11/17 03:00:33;;;;;;;6.97;4.45;;;3.20;99.90;;;;;;2081181;28;20674;-63
2021/11/17 03:02:04;;;;;;;6.93;4.20;;;3.20;99.90;;;;;;2081248;28;20184;-63
2021/11/17 03:03:34;;;;;;;7.40;3.78;;;3.20;99.90;;;;;;2081401;28;20175;-64
2021/11/17 03:05:15;;;;;;;6.47;4.18;;;3.20;99.90;;;;;;2081422;28;20276;-64
2021/11/17 03:06:37;;;;;;;6.95;4.43;;;3.20;99.90;;;;;;2079003;28;20644;-64
2021/11/17 03:07:56;;;;;;;8.13;4.30;;;3.20;99.80;;;;;;2081311;28;20258;-64
2021/11/17 03:09:24;;;;;;;6.88;3.95;;;3.20;99.40;;;;;;2081228;28;20181;-64
2021/11/17 03:11:04;;;;;;;5.78;3.90;;;3.10;99.40;;;;;;2080785;28;20309;-64
2021/11/17 03:12:42;;;;;;;6.47;3.92;;;3.10;99.70;;;;;;2080774;28;20269;-64
2021/11/17 03:14:07;;;;;;;4.90;3.25;;;3.10;99.90;;;;;;2089441;28;20215;-64
2021/11/17 03:15:29;;;;;;;6.05;3.97;;;3.10;99.90;;;;;;2089439;28;20577;-64
2021/11/17 03:17:27;;;;;;;5.55;3.60;;;3.20;99.70;;;;;;2089387;28;20193;-64
2021/11/17 03:19:06;;;;;;;6.47;3.85;;;3.10;99.80;;;;;;2073148;28;20225;-64
2021/11/17 03:20:44;;;;;;;6.88;3.78;;;3.10;99.90;;;;;;2071605;28;20214;-64
2021/11/17 03:21:56;;;;;;;6.20;3.75;;;3.10;99.90;;;;;;2089278;28;20603;-64
2021/11/17 03:23:36;;;;;;;6.57;3.58;;;3.10;99.90;;;;;;2089465;28;20301;-64
2021/11/17 03:25:04;;;;;;;6.72;3.50;;;3.20;99.90;;;;;;2089351;28;20265;-64
2021/11/17 03:26:23;;;;;;;6.25;3.10;;;3.20;99.90;;;;;;2089410;28;20665;-64
2021/11/17 03:28:04;;;;;;;6.85;3.88;;;3.20;99.90;;;;;;2089525;28;20189;-63
2021/11/17 03:29:23;;;;;;;5.43;3.53;;;3.20;99.90;;;;;;2089622;28;20189;-63
2021/11/17 03:30:43;;;;;;;4.68;2.85;;;3.20;99.90;;;;;;2089288;28;20199;-63
2021/11/17 03:32:28;;;;;;;6.20;3.67;;;3.20;99.90;;;;;;2089418;28;20204;-63
2021/11/17 03:34:00;;;;;;;5.70;3.53;;;3.20;99.80;;;;;;2089491;28;20216;-63
2021/11/17 03:35:28;;;;;;;6.35;3.55;;;3.10;99.70;;;;;;2089420;28;20204;-63
2021/11/17 03:37:06;;;;;;;9.13;4.18;;;3.10;99.90;;;;;;2089395;28;20191;-63
2021/11/17 03:38:32;;;;;;;6.07;3.45;;;3.10;99.90;;;;;;2089588;28;20187;-63
2021/11/17 03:40:05;;;;;;;6.85;3.65;;;3.20;99.90;;;;;;2090405;28;20768;-63
2021/11/17 03:41:53;;;;;;;5.50;3.70;;;3.20;99.90;;;;;;2090783;28;20576;-63
2021/11/17 03:43:24;;;;;;;5.22;3.67;;;3.30;99.90;;;;;;2090923;28;20167;-63
2021/11/17 03:44:40;;;;;;;5.97;3.33;;;3.30;99.90;;;;;;2091046;28;20649;-63
2021/11/17 03:46:00;;;;;;;5.28;3.35;;;3.30;99.90;;;;;;2091100;28;20196;-63
2021/11/17 03:47:28;;;;;;;5.50;3.90;;;3.40;99.90;;;;;;2090968;28;20534;-63
2021/11/17 03:49:09;;;;;;;5.82;3.53;;;3.30;99.90;;;;;;2090823;28;20653;-64
2021/11/17 03:50:53;;;;;;;7.43;3.60;;;3.30;99.90;;;;;;2090924;28;20182;-63
2021/11/17 03:51:56;;;;;;;4.25;3.08;;;3.30;99.90;;;;;;2090856;28;20290;-63
2021/11/17 03:53:31;;;;;;;5.82;3.67;;;3.30;99.90;;;;;;2091006;28;20184;-64
2021/11/17 03:55:12;;;;;;;5.32;3.13;;;3.20;99.50;;;;;;2090863;28;20176;-64
2021/11/17 03:56:52;;;;;;;5.00;3.03;;;3.20;99.80;;;;;;2075481;28;20262;-64
2021/11/17 03:58:25;;;;;;;5.10;3.13;;;3.10;99.70;;;;;;2090847;28;20710;-64
2021/11/17 04:00:22;;;;;;;5.00;3.30;;;3.10;99.90;;;;;;2090899;28;20192;-64
2021/11/17 04:01:52;;;;;;;6.15;3.28;;;3.10;99.90;;;;;;2074194;28;20569;-64
2021/11/17 04:02:58;;;;;;;4.53;3.03;;;3.10;99.90;;;;;;2089452;28;20186;-64
2021/11/17 04:04:27;;;;;;;6.60;3.45;;;3.10;99.90;;;;;;2088890;28;20186;-65
2021/11/17 04:06:00;;;;;;;5.00;3.13;;;3.10;99.90;;;;;;2090984;28;20191;-64
2021/11/17 04:07:15;;;;;;;4.72;2.88;;;3.10;99.90;;;;;;2090672;28;20320;-64
2021/11/17 04:08:54;;;;;;;4.78;3.10;;;3.20;99.90;;;;;;2090768;28;20231;-64
2021/11/17 04:10:06;;;;;;;3.30;2.45;;;3.30;99.80;;;;;;2064899;28;20192;-64
2021/11/17 04:11:09;;;;;;;4.90;2.58;;;3.20;99.40;;;;;;2064918;28;20707;-64
2021/11/17 04:12:16;;;;;;;3.65;2.60;;;3.20;99.40;;;;;;2065034;28;20310;-64
2021/11/17 04:14:18;;;;;;;5.00;2.75;;;3.20;98.90;;;;;;2065499;28;20617;-64
2021/11/17 04:15:26;;;;;;;3.95;2.55;;;3.10;99.10;;;;;;2070961;28;20608;-64
2021/11/17 04:17:05;;;;;;;3.88;2.40;;;3.10;99.50;;;;;;2090906;28;20193;-64
2021/11/17 04:18:32;;;;;;;4.68;2.47;;;3.00;99.80;;;;;;2065242;28;20681;-64
2021/11/17 04:20:00;;;;;;;3.20;2.30;;;3.00;99.90;;;;;;2065781;28;20180;-64
2021/11/17 04:21:29;;;;;;;4.45;2.40;;;3.00;99.90;;;;;;2090293;28;20212;-64
2021/11/17 04:23:00;;;;;;;4.47;2.50;;;3.00;99.90;;;;;;2091457;28;20186;-64
2021/11/17 04:24:40;;;;;;;3.03;2.10;;;3.00;99.90;;;;;;2091178;28;20699;-64
2021/11/17 04:26:00;;;;;;;4.25;2.67;;;3.00;99.70;;;;;;2090808;28;20236;-64
2021/11/17 04:27:45;;;;;;;4.40;2.97;;;3.00;99.50;;;;;;2090659;28;20234;-64
2021/11/17 04:29:20;;;;;;;4.13;2.55;;;3.00;99.70;;;;;;2098114;28;20291;-64
2021/11/17 04:30:56;;;;;;;4.53;2.63;;;3.10;99.70;;;;;;2093914;28;20183;-64
2021/11/17 04:32:28;;;;;;;4.45;3.00;;;3.10;99.30;;;;;;2090246;28;20209;-64
2021/11/17 04:33:50;;;;;;;4.35;2.50;;;3.00;98.60;;;;;;2090599;28;20169;-64
2021/11/17 04:35:09;;;;;;;4.30;2.88;;;2.90;99.20;;;;;;2090600;28;20195;-63
2021/11/17 04:36:57;;;;;;;3.83;2.88;;;2.90;99.50;;;;;;2090506;28;20231;-63
2021/11/17 04:38:22;;;;;;;5.15;3.08;;;2.90;99.70;;;;;;2090588;28;20184;-63
2021/11/17 04:39:43;;;;;;;4.88;3.33;;;3.00;99.90;;;;;;2090479;28;20205;-63
2021/11/17 04:41:08;;;;;;;4.00;2.65;;;3.00;99.90;;;;;;2090322;28;20335;-63
2021/11/17 04:42:15;;;;;;;4.43;2.78;;;3.00;99.70;;;;;;2090456;28;20277;-63
2021/11/17 04:43:37;;;;;;;4.90;3.00;;;3.00;99.70;;;;;;2090503;28;20177;-63
2021/11/17 04:45:09;;;;;;;3.88;2.88;;;2.90;99.80;;;;;;2090553;28;20177;-63
2021/11/17 04:46:40;;;;;;;5.97;3.40;;;2.90;99.90;;;;;;2090519;28;20598;-63
2021/11/17 04:48:04;;;;;;;7.75;2.83;;;2.90;99.90;;;;;;2090590;28;20181;-63
2021/11/17 04:49:42;;;;;;;4.15;2.42;;;2.90;99.90;;;;;;2090364;28;20637;-63
2021/11/17 04:51:05;;;;;;;4.80;2.88;;;2.90;99.80;;;;;;2089723;28;20441;-63
2021/11/17 04:52:54;;;;;;;5.13;2.90;;;2.90;99.50;;;;;;2090340;28;20225;-63
2021/11/17 04:54:31;;;;;;;3.83;2.88;;;2.90;99.60;;;;;;2090458;28;20230;-63
2021/11/17 04:55:52;;;;;;;4.13;2.80;;;2.90;99.60;;;;;;2090405;28;20208;-63
2021/11/17 04:57:02;;;;;;;4.20;2.63;;;2.90;99.50;;;;;;2090500;28;20184;-63
2021/11/17 04:58:50;;;;;;;3.97;2.70;;;2.90;99.60;;;;;;2090434;28;20178;-63
2021/11/17 05:00:12;;;;;;;3.95;2.95;;;2.80;99.70;;;;;;2090342;28;20182;-63
2021/11/17 05:01:29;;;;;;;4.47;2.88;;;2.80;99.80;;;;;;2090199;28;20182;-63
2021/11/17 05:03:00;;;;;;;5.25;2.90;;;2.80;99.70;;;;;;2090446;28;20185;-63
2021/11/17 05:04:16;;;;;;;5.07;3.10;;;2.80;99.60;;;;;;2090554;28;20191;-63
2021/11/17 05:05:44;;;;;;;4.90;3.22;;;2.80;99.80;;;;;;2090452;28;20180;-63
2021/11/17 05:06:51;;;;;;;5.20;3.17;;;2.80;99.90;;;;;;2090382;28;20181;-65
2021/11/17 05:08:32;;;;;;;4.43;3.22;;;2.80;99.90;;;;;;2090466;28;20560;-63
2021/11/17 05:10:15;;;;;;;6.80;4.63;;;2.90;99.90;;;;;;2090420;28;20177;-66
2021/11/17 05:11:34;;;;;;;4.50;3.17;;;2.90;99.90;;;;;;2081634;28;20267;-66
2021/11/17 05:12:40;;;;;;;4.22;3.03;;;3.00;99.90;;;;;;2089925;28;20191;-63
2021/11/17 05:14:12;;;;;;;4.72;3.47;;;3.00;99.60;;;;;;2090497;28;20189;-63
2021/11/17 05:15:28;;;;;;;4.63;3.25;;;2.90;99.60;;;;;;2090385;28;20205;-63
2021/11/17 05:17:00;;;;;;;5.28;3.50;;;2.80;99.90;;;;;;2090261;28;20255;-63
2021/11/17 05:18:48;;;;;;;5.78;3.65;;;2.80;99.90;;;;;;2090303;28;20681;-63
2021/11/17 05:20:24;;;;;;;5.88;3.65;;;2.80;99.90;;;;;;2064426;28;20203;-63
2021/11/17 05:21:51;;;;;;;5.45;3.55;;;2.80;99.90;;;;;;2083853;28;20228;-63
2021/11/17 05:23:47;;;;;;;6.00;3.45;;;2.90;99.90;;;;;;2084858;28;20179;-63
2021/11/17 05:24:57;;;;;;;3.85;2.70;;;2.90;99.90;;;;;;2090100;28;20240;-63
2021/11/17 05:26:29;;;;;;;3.85;2.75;;;2.80;99.90;;;;;;2090333;28;20193;-63
2021/11/17 05:28:11;;;;;;;4.30;2.78;;;2.70;99.90;;;;;;2090163;28;20183;-63
2021/11/17 05:29:40;;;;;;;3.53;2.30;;;2.70;99.90;;;;;;2081905;28;20701;-63
2021/11/17 05:30:59;;;;;;;2.88;2.50;;;2.60;99.90;;;;;;2080378;28;20736;-63
2021/11/17 05:32:53;;;;;;;3.65;2.60;;;2.60;99.90;;;;;;2089934;28;20213;-63
2021/11/17 05:34:51;;;;;;;3.95;2.70;;;2.60;99.90;;;;;;2088708;28;20204;-63
2021/11/17 05:36:25;;;;;;;4.90;3.03;;;2.60;99.90;;;;;;2089489;28;20184;-63
2021/11/17 05:37:42;;;;;;;5.35;3.13;;;2.60;99.90;;;;;;2089977;28;20182;-63
2021/11/17 05:38:49;;;;;;;4.68;3.10;;;2.60;99.90;;;;;;2090173;28;20191;-63
2021/11/17 05:40:15;;;;;;;4.70;3.10;;;2.70;99.90;;;;;;2089938;28;20190;-63
2021/11/17 05:41:33;;;;;;;4.28;3.28;;;2.70;99.90;;;;;;2089828;28;20214;-63
2021/11/17 05:42:42;;;;;;;5.15;3.33;;;2.80;99.90;;;;;;2089944;28;20177;-63
2021/11/17 05:44:25;;;;;;;5.85;3.60;;;2.80;99.90;;;;;;2089947;28;20180;-63
2021/11/17 05:46:21;;;;;;;6.32;3.50;;;2.80;99.90;;;;;;2090030;28;20534;-63
2021/11/17 05:47:46;;;;;;;4.43;3.30;;;2.90;99.90;;;;;;2085888;28;20185;-63
2021/11/17 05:49:22;;;;;;;4.20;2.65;;;2.90;99.90;;;;;;2089974;28;20187;-63
2021/11/17 05:50:43;;;;;;;3.80;2.58;;;2.90;99.90;;;;;;2089813;28;20171;-63
2021/11/17 05:52:06;;;;;;;4.10;2.60;;;2.80;99.90;;;;;;2089934;28;20311;-63
2021/11/17 05:53:22;;;;;;;3.00;2.13;;;2.80;99.90;;;;;;2089931;28;20185;-63
2021/11/17 05:54:42;;;;;;;3.83;2.50;;;2.80;99.90;;;;;;2089819;28;20188;-63
2021/11/17 05:56:07;;;;;;;2.40;1.92;;;2.80;99.90;;;;;;2089915;28;20176;-63
2021/11/17 05:57:31;;;;;;;3.92;2.17;;;2.80;99.90;;;;;;2089965;28;20181;-63
2021/11/17 05:58:59;;;;;;;3.63;2.20;;;2.70;99.90;;;;;;2089031;28;20223;-63
2021/11/17 06:00:08;;;;;;;3.15;1.85;;;2.70;99.90;;;;;;2089582;28;20181;-63
2021/11/17 06:01:39;;;;;;;2.70;1.92;;;2.70;99.90;;;;;;2089492;28;20192;-63
2021/11/17 06:02:54;;;;;;;3.10;1.95;;;2.70;99.90;;;;;;2089714;28;20182;-63
2021/11/17 06:04:05;;;;;;;2.83;2.05;;;2.70;99.90;;;;;;2089814;28;20189;-64
2021/11/17 06:05:05;;;;;;;3.78;2.38;;;2.70;99.90;;;;;;2085883;28;20181;-64
2021/11/17 06:06:06;;;;;;;2.57;1.93;;;2.70;99.90;;;;;;2081587;28;20183;-63
2021/11/17 06:07:06;;;;;;;4.27;2.30;;;2.80;99.90;;;;;;2081548;28;20177;-63
2021/11/17 06:08:07;;;;;;;2.53;2.07;;;2.80;99.90;;;;;;2081724;28;20238;-63
2021/11/17 06:09:07;;;;;;;3.47;2.30;;;2.80;99.90;;;;;;2081362;28;20264;-64
2021/11/17 06:10:13;;;;;;;4.07;2.70;;;2.90;99.90;;;;;;2081504;28;20177;-64
2021/11/17 06:11:13;;;;;;;4.30;2.67;;;2.80;99.90;;;;;;2081251;28;20196;-64
2021/11/17 06:12:16;;;;;;;3.53;2.83;;;2.90;99.90;;;;;;2081555;28;20241;-64
2021/11/17 06:13:18;;;;;;;2.65;2.33;;;2.80;99.90;;;;;;2080973;28;20183;-64
2021/11/17 06:14:42;;;;;;;4.35;3.03;;;2.80;99.90;;;;;;2080941;28;20221;-64
2021/11/17 06:15:46;;;;;;;3.25;2.47;;;2.80;99.90;;;;;;2080899;28;20191;-64
2021/11/17 06:16:51;;;;;;;4.32;2.78;;;2.80;99.90;;;;;;2073093;28;20644;-64
2021/11/17 06:17:56;;;;;;;4.38;2.67;;;2.90;99.90;;;;;;2073430;28;20652;-64
2021/11/17 06:18:57;;;;;;;4.25;2.50;;;2.80;99.90;;;;;;2073164;28;20187;-64
2021/11/17 06:19:57;;;;;;;3.27;2.63;;;2.90;99.90;;;;;;2080735;28;20189;-64
2021/11/17 06:21:02;;;;;;;3.67;2.53;;;2.90;99.90;;;;;;2080634;28;20222;-63
2021/11/17 06:22:05;;;;;;;3.58;2.30;;;2.90;99.90;;;;;;2073298;28;20182;-64
2021/11/17 06:23:12;;;;;;;3.20;2.45;;;2.80;99.90;;;;;;2072966;28;20183;-64
2021/11/17 06:24:20;;;;;;;3.08;2.30;;;2.80;99.90;;;;;;2073497;28;20320;-63
2021/11/17 06:25:22;;;;;;;3.92;2.53;;;2.80;99.90;;;;;;2080789;28;20618;-64
2021/11/17 06:26:29;;;;;;;5.28;3.13;;;2.70;99.90;;;;;;2081625;28;20488;-64
2021/11/17 06:27:34;;;;;;;5.72;4.03;;;2.70;99.90;;;;;;2081447;28;20180;-64
2021/11/17 06:28:34;;;;;;;3.97;3.30;;;2.70;99.90;;;;;;2080855;28;20178;-64
2021/11/17 06:29:41;;;;;;;13.47;6.83;;;2.70;99.90;;;;;;2080727;28;20644;-64
2021/11/17 06:30:42;;;;;;;19.55;10.00;;;2.70;99.90;;;;;;2080403;28;20173;-64
2021/11/17 06:31:43;;;;;;;14.57;7.97;;;2.60;99.90;;;;;;2080694;28;20183;-63
2021/11/17 06:32:45;;;;;;;5.43;3.50;;;2.60;99.90;;;;;;2081506;28;20190;-64
2021/11/17 06:33:47;;;;;;;6.05;3.72;;;2.60;99.90;;;;;;2081283;28;20236;-63
2021/11/17 06:34:53;;;;;;;5.50;3.30;;;2.60;99.90;;;;;;2081404;28;20179;-64
2021/11/17 06:35:54;;;;;;;9.90;5.00;;;2.60;99.90;;;;;;2081158;28;20559;-64
2021/11/17 06:36:55;;;;;;;5.87;3.87;;;2.60;99.90;;;;;;2081391;28;20182;-64
2021/11/17 06:37:56;;;;;;;4.72;3.42;;;2.60;99.90;;;;;;2081327;28;20191;-64
2021/11/17 06:38:57;;;;;;;4.77;3.33;;;2.60;99.90;;;;;;2081234;28;20176;-64
2021/11/17 06:40:01;;;;;;;4.73;3.33;;;2.60;99.90;;;;;;2081169;28;20180;-64
2021/11/17 06:41:04;;;;;;;9.05;5.78;;;2.60;99.90;;;;;;2082331;28;20278;-64
2021/11/17 06:42:11;;;;;;;8.52;4.55;;;2.50;99.90;;;;;;2088763;28;20185;-63
2021/11/17 06:43:12;;;;;;;9.10;4.70;;;2.50;99.90;;;;;;2089065;28;20193;-64
2021/11/17 06:44:12;;;;;;;10.93;5.95;;;2.50;99.90;;;;;;2089355;28;20533;-64
2021/11/17 06:45:38;;;;;;;8.73;5.97;;;2.50;99.90;;;;;;2089672;28;20186;-64
2021/11/17 06:46:39;;;;;;;4.93;3.33;;;2.50;99.90;;;;;;2088688;28;20674;-64
2021/11/17 06:47:40;;;;;;;12.53;7.77;;;2.60;99.90;;;;;;2088976;28;20186;-64
2021/11/17 06:48:40;;;;;;;7.40;4.63;;;2.60;99.90;;;;;;2089453;28;20856;-64
2021/11/17 06:49:41;;;;;;;7.27;4.57;;;2.60;99.90;;;;;;2089703;28;20193;-64
2021/11/17 06:50:46;;;;;;;7.23;4.87;;;2.70;99.90;;;;;;2083187;28;20246;-64
2021/11/17 06:51:47;;;;;;;6.00;3.85;;;2.70;99.90;;;;;;2083133;28;20189;-64
2021/11/17 06:52:48;;;;;;;5.53;3.70;;;2.70;99.90;;;;;;2083541;28;20631;-64
2021/11/17 06:53:49;;;;;;;5.30;3.83;;;2.80;99.90;;;;;;2087740;28;20281;-64
2021/11/17 06:54:50;;;;;;;5.70;3.87;;;2.80;99.90;;;;;;2089305;28;20181;-64
2021/11/17 06:55:52;;;;;;;5.72;3.83;;;2.80;99.90;;;;;;2089394;28;20177;-64
2021/11/17 06:56:53;;;;;;;7.00;3.78;;;2.90;99.90;;;;;;2089444;28;20186;-64
2021/11/17 06:57:54;;;;;;;8.20;3.30;;;2.90;99.90;;;;;;2089471;28;20181;-64
2021/11/17 06:58:55;;;;;;;5.70;3.40;;;2.80;99.90;;;;;;2089343;28;20179;-64
2021/11/17 06:59:56;;;;;;;4.60;3.30;;;2.70;99.90;;;;;;2089479;28;20182;-64
2021/11/17 07:00:57;;;;;;;4.47;2.90;;;2.70;99.90;;;;;;2088629;28;20191;-64
2021/11/17 07:02:04;;;;;;;4.60;3.07;;;2.60;99.90;;;;;;2089391;28;20188;-63
2021/11/17 07:03:05;;;;;;;3.22;2.78;;;2.60;99.90;;;;;;2089295;28;20652;-64
2021/11/17 07:04:07;;;;;;;4.70;2.40;;;2.50;99.90;;;;;;2089529;28;20172;-64
2021/11/17 07:05:10;;;;;;;5.28;3.10;;;2.50;99.90;;;;;;2089260;28;20178;-64
2021/11/17 07:06:10;;;;;;;4.20;3.00;;;2.60;99.90;;;;;;2089449;28;20189;-64
2021/11/17 07:07:16;;;;;;;4.13;2.70;;;2.60;99.90;;;;;;2089291;28;20181;-64
2021/11/17 07:08:17;;;;;;;3.13;2.45;;;2.60;99.90;;;;;;2089495;28;20256;-64
2021/11/17 07:09:18;;;;;;;3.57;2.57;;;2.60;99.70;;;;;;2089263;28;20185;-64
2021/11/17 07:10:19;;;;;;;3.90;2.90;;;2.60;99.80;;;;;;2089440;28;20250;-64
2021/11/17 07:11:20;;;;;;;4.57;3.00;;;2.60;99.90;;;;;;2088486;28;20226;-65
2021/11/17 07:12:21;;;;;;;4.00;3.00;;;2.60;99.90;;;;;;2089351;28;20230;-64
2021/11/17 07:13:22;;;;;;;3.88;2.88;;;2.70;99.90;;;;;;2088649;28;20175;-65
2021/11/17 07:14:23;;;;;;;5.53;3.70;;;2.70;99.90;;;;;;2088157;28;20167;-65
2021/11/17 07:15:26;;;;;;;3.67;2.65;;;2.70;99.90;;;;;;2089260;28;20211;-65
2021/11/17 07:16:28;;;;;;;4.82;3.08;;;2.70;99.10;;;;;;2089389;28;20174;-65
2021/11/17 07:17:29;;;;;;;3.28;2.70;;;2.60;99.20;;;;;;2089262;28;20167;-64
2021/11/17 07:18:32;;;;;;;6.63;3.20;;;2.60;99.50;;;;;;2089368;28;20187;-65
2021/11/17 07:19:33;;;;;;;5.22;3.28;;;2.50;99.80;;;;;;2088973;28;20909;-65
2021/11/17 07:20:36;;;;;;;3.57;2.33;;;2.50;99.90;;;;;;2088662;28;20164;-65
2021/11/17 07:21:40;;;;;;;5.00;3.10;;;2.50;99.90;;;;;;2089293;28;20187;-65
2021/11/17 07:22:41;;;;;;;5.55;3.55;;;2.50;99.90;;;;;;2088793;28;20168;-65
2021/11/17 07:23:42;;;;;;;6.43;4.30;;;2.50;99.90;;;;;;2088611;28;20202;-65
2021/11/17 07:24:43;;;;;;;4.43;2.70;;;2.60;99.90;;;;;;2089261;28;20182;-65
2021/11/17 07:25:44;;;;;;;3.75;2.85;;;2.70;99.90;;;;;;2089250;28;20213;-65
2021/11/17 07:26:45;;;;;;;4.77;2.87;;;2.70;99.90;;;;;;2089327;28;20658;-65
2021/11/17 07:27:46;;;;;;;4.47;3.20;;;2.70;99.90;;;;;;2089245;28;20167;-65
2021/11/17 07:28:46;;;;;;;5.70;3.40;;;2.70;99.90;;;;;;2089301;28;20662;-65
2021/11/17 07:29:53;;;;;;;4.10;2.97;;;2.70;99.90;;;;;;2089291;28;20752;-65
2021/11/17 07:30:54;;;;;;;4.90;3.13;;;2.70;99.90;;;;;;2088674;28;20255;-65
2021/11/17 07:31:55;;;;;;;3.53;3.03;;;2.70;99.90;;;;;;2089190;28;20344;-65
2021/11/17 07:32:56;;;;;;;4.68;3.08;;;2.70;99.90;;;;;;2089242;28;20175;-65
2021/11/17 07:33:56;;;;;;;3.78;2.88;;;2.70;99.90;;;;;;2089405;28;20188;-65
2021/11/17 07:34:57;;;;;;;3.63;2.57;;;2.70;99.90;;;;;;2089137;28;20195;-65
2021/11/17 07:35:58;;;;;;;4.20;2.73;;;2.70;99.90;;;;;;2088674;28;20173;-65
2021/11/17 07:36:59;;;;;;;6.63;3.37;;;2.70;99.90;;;;;;2088495;28;20252;-65
2021/11/17 07:38:03;;;;;;;4.33;3.30;;;2.70;99.90;;;;;;2089182;28;20694;-65
2021/11/17 07:39:06;;;;;;;3.83;3.00;;;2.80;99.90;;;;;;2089043;28;20174;-64
2021/11/17 07:40:10;;;;;;;3.88;2.97;;;2.80;99.90;;;;;;2089082;28;20710;-64
2021/11/17 07:41:11;;;;;;;5.55;3.47;;;2.80;99.90;;;;;;2088404;28;20196;-65
2021/11/17 07:42:12;;;;;;;5.93;3.83;;;2.80;99.70;;;;;;2089256;28;20685;-65
2021/11/17 07:43:16;;;;;;;6.93;3.58;;;2.70;99.50;;;;;;2089236;28;20260;-65
2021/11/17 07:44:18;;;;;;;5.22;3.30;;;2.70;99.90;;;;;;2089249;28;20202;-65
2021/11/17 07:45:18;;;;;;;6.43;2.95;;;2.70;99.90;;;;;;2089322;28;20171;-64
2021/11/17 07:46:20;;;;;;;7.87;4.40;;;2.70;99.90;;;;;;2089150;28;20186;-65
2021/11/17 07:47:20;;;;;;;6.55;4.13;;;2.70;99.90;;;;;;2089245;28;20192;-64
2021/11/17 07:48:25;;;;;;;5.73;3.53;;;2.80;99.90;;;;;;2089291;28;20208;-65
2021/11/17 07:49:27;;;;;;;6.22;3.38;;;2.80;99.90;;;;;;2088596;28;20178;-64
2021/11/17 07:50:30;;;;;;;4.22;3.03;;;2.80;99.80;;;;;;2088020;28;20175;-65
2021/11/17 07:51:31;;;;;;;5.18;3.45;;;2.80;99.60;;;;;;2088958;28;20302;-64
2021/11/17 07:52:33;;;;;;;4.67;3.10;;;2.70;99.80;;;;;;2089269;28;20587;-65
2021/11/17 07:53:34;;;;;;;4.72;3.28;;;2.70;99.80;;;;;;2089052;28;20547;-65
2021/11/17 07:54:35;;;;;;;6.40;3.50;;;2.80;99.90;;;;;;2089208;28;20583;-64
2021/11/17 07:55:45;;;;;;;6.83;3.27;;;2.70;99.90;;;;;;2089051;28;20173;-65
2021/11/17 07:56:48;;;;;;;4.10;2.70;;;2.80;99.90;;;;;;2088486;28;20189;-65
2021/11/17 07:57:53;;;;;;;7.03;4.15;;;2.80;99.90;;;;;;2080363;28;20186;-65
2021/11/17 07:58:54;;;;;;;6.90;4.30;;;2.90;99.90;;;;;;2088622;28;20238;-65
2021/11/17 07:59:55;;;;;;;5.03;3.10;;;2.90;99.90;;;;;;2088500;28;20179;-65
2021/11/17 08:00:59;;;;;;;4.10;2.73;;;2.90;99.50;;;;;;2087745;28;20207;-65
2021/11/17 08:02:07;;;;;;;3.55;2.35;;;2.90;99.40;;;;;;2089164;28;20205;-65
2021/11/17 08:03:10;;;;;;;5.53;3.53;;;2.90;99.60;;;;;;2088480;28;20265;-65
2021/11/17 08:04:14;;;;;;;6.63;3.28;;;2.90;99.60;;;;;;2088481;28;20176;-64
2021/11/17 08:05:15;;;;;;;3.95;2.63;;;2.80;99.20;;;;;;2084220;28;20190;-65
2021/11/17 08:06:21;;;;;;;2.73;2.37;;;2.70;99.20;;;;;;2072210;28;20666;-65
2021/11/17 08:07:22;;;;;;;4.72;2.53;;;2.70;99.20;;;;;;2072959;28;20210;-64
2021/11/17 08:08:27;;;;;;;2.13;1.83;;;2.70;99.00;;;;;;2080153;28;20184;-65
2021/11/17 08:09:29;;;;;;;2.92;2.25;;;2.70;98.80;;;;;;2080378;28;20223;-64
2021/11/17 08:10:36;;;;;;;3.70;2.25;;;2.70;98.90;;;;;;2071814;28;20200;-65
2021/11/17 08:11:39;;;;;;;3.88;2.97;;;2.70;99.00;;;;;;2072778;28;20183;-65
2021/11/17 08:12:40;;;;;;;2.30;1.85;;;2.70;99.10;;;;;;2080369;28;20186;-65
2021/11/17 08:13:42;;;;;;;2.97;2.22;;;2.70;99.40;;;;;;2080670;28;20668;-65
2021/11/17 08:14:43;;;;;;;3.25;2.25;;;2.70;99.20;;;;;;2080945;28;20183;-65
2021/11/17 08:15:43;;;;;;;4.03;2.20;;;2.80;99.20;;;;;;2080869;28;20223;-65
2021/11/17 08:16:44;;;;;;;2.80;2.30;;;2.80;98.90;;;;;;2080839;28;20179;-65
2021/11/17 08:17:45;;;;;;;2.13;1.90;;;2.80;99.00;;;;;;2080801;28;20174;-65
2021/11/17 08:18:46;;;;;;;3.90;2.43;;;2.90;99.00;;;;;;2080711;28;20203;-65
2021/11/17 08:19:48;;;;;;;4.50;2.63;;;2.90;99.00;;;;;;2080837;28;20175;-65
2021/11/17 08:20:48;;;;;;;4.38;3.05;;;3.00;98.70;;;;;;2080183;28;20179;-65
2021/11/17 08:21:49;;;;;;;3.90;2.83;;;3.00;98.80;;;;;;2080900;28;20682;-65
2021/11/17 08:22:55;;;;;;;5.83;3.33;;;2.90;98.90;;;;;;2080767;28;20187;-65
2021/11/17 08:23:55;;;;;;;4.05;2.90;;;3.00;99.00;;;;;;2080871;28;20178;-65
2021/11/17 08:24:56;;;;;;;3.87;2.83;;;3.00;98.60;;;;;;2080768;28;20211;-65
2021/11/17 08:25:57;;;;;;;4.67;2.90;;;2.90;98.50;;;;;;2082280;28;20618;-65
2021/11/17 08:26:57;;;;;;;4.17;3.10;;;2.90;98.60;;;;;;2082276;28;20183;-64
2021/11/17 08:27:59;;;;;;;5.47;3.33;;;2.90;98.90;;;;;;2082441;28;20652;-65
2021/11/17 08:28:59;;;;;;;4.22;3.22;;;2.90;98.90;;;;;;2082282;28;20661;-65
2021/11/17 08:30:00;;;;;;;4.40;2.90;;;2.90;99.00;;;;;;2082298;28;20276;-65
2021/11/17 08:31:02;;;;;;;5.38;3.35;;;2.90;99.00;;;;;;2081578;28;20204;-65
2021/11/17 08:32:04;;;;;;;4.85;2.85;;;2.90;99.00;;;;;;2082349;28;20707;-65
2021/11/17 08:33:06;;;;;;;4.30;3.17;;;2.90;98.80;;;;;;2082196;28;20606;-65
2021/11/17 08:34:08;;;;;;;4.88;3.15;;;2.90;98.90;;;;;;2081675;28;20197;-65
2021/11/17 08:35:12;;;;;;;4.53;2.72;;;2.90;99.10;;;;;;2081532;28;20170;-65
2021/11/17 08:36:13;;;;;;;4.15;2.50;;;2.90;99.00;;;;;;2082357;28;20171;-65
2021/11/17 08:37:14;;;;;;;4.37;2.80;;;2.90;99.00;;;;;;2082123;28;20172;-65
2021/11/17 08:38:22;;;;;;;4.13;2.75;;;2.90;99.10;;;;;;2082275;28;20414;-64
2021/11/17 08:39:25;;;;;;;3.72;2.50;;;2.90;98.80;;;;;;2082283;28;20204;-65
2021/11/17 08:40:37;;;;;;;4.35;2.80;;;2.90;98.90;;;;;;2086100;28;20213;-65
2021/11/17 08:41:38;;;;;;;6.38;3.55;;;2.90;98.90;;;;;;2089961;28;20180;-65
2021/11/17 08:42:40;;;;;;;4.63;3.10;;;3.00;99.10;;;;;;2090532;28;20233;-65
2021/11/17 08:43:41;;;;;;;4.22;2.92;;;3.00;99.00;;;;;;2090464;28;20223;-65
2021/11/17 08:44:43;;;;;;;5.68;3.10;;;3.00;98.90;;;;;;2090572;28;20230;-65
2021/11/17 08:45:45;;;;;;;5.28;3.35;;;3.00;98.40;;;;;;2090289;28;20185;-65
2021/11/17 08:46:46;;;;;;;4.68;3.35;;;3.00;98.60;;;;;;2090429;28;20647;-64
2021/11/17 08:47:47;;;;;;;5.07;3.10;;;3.00;98.60;;;;;;2090356;28;20206;-65
2021/11/17 08:48:48;;;;;;;4.63;2.97;;;3.00;98.80;;;;;;2090516;28;20185;-65
2021/11/17 08:49:50;;;;;;;3.70;2.30;;;3.10;98.80;;;;;;2090233;28;20577;-65
2021/11/17 08:50:55;;;;;;;2.65;2.05;;;3.00;98.10;;;;;;2089728;28;20240;-64
2021/11/17 08:51:56;;;;;;;3.53;2.20;;;3.00;98.50;;;;;;2090298;28;20210;-64
2021/11/17 08:52:57;;;;;;;3.17;2.50;;;2.90;98.50;;;;;;2090509;28;20182;-64
2021/11/17 08:54:03;;;;;;;3.78;2.70;;;2.90;98.80;;;;;;2090301;28;20212;-64
2021/11/17 08:55:05;;;;;;;2.28;1.75;;;3.00;98.70;;;;;;2090617;28;20181;-64
2021/11/17 08:56:09;;;;;;;3.08;2.30;;;3.00;98.70;;;;;;2090339;28;20644;-64
2021/11/17 08:57:09;;;;;;;1.67;1.50;;;3.00;98.60;;;;;;2090443;28;20169;-65
2021/11/17 08:58:17;;;;;;;2.00;1.80;;;3.00;98.20;;;;;;2090377;28;20652;-64
2021/11/17 08:59:18;;;;;;;2.35;1.70;;;3.00;98.30;;;;;;2089859;28;20166;-65
2021/11/17 09:00:22;;;;;;;1.97;1.77;;;3.10;98.50;;;;;;2089781;28;20169;-65
2021/11/17 09:01:23;;;;;;;2.03;1.58;;;3.00;98.20;;;;;;2090142;28;20545;-64